createdAt,value
2023-05-15T00:01:59.716Z,4.88
2023-05-15T00:04:27.191Z,5.25
2023-05-15T00:06:54.832Z,4.78
2023-05-15T00:09:22.320Z,4.35
2023-05-15T00:11:49.891Z,5.43
2023-05-15T00:14:17.384Z,5.40
2023-05-15T00:16:44.952Z,6.32
2023-05-15T00:19:12.569Z,6.53
2023-05-15T00:21:40.115Z,10.00
2023-05-15T00:24:07.635Z,7.53
2023-05-15T00:26:35.309Z,7.97
2023-05-15T00:29:04.397Z,8.00
2023-05-15T00:31:33.431Z,7.72
2023-05-15T00:34:00.950Z,6.32
2023-05-15T00:36:28.439Z,7.07
2023-05-15T00:38:56.152Z,7.55
2023-05-15T00:41:27.033Z,7.03
2023-05-15T00:43:56.217Z,7.70
2023-05-15T00:46:25.080Z,6.93
2023-05-15T00:48:52.816Z,6.40
2023-05-15T00:51:20.241Z,6.88
2023-05-15T00:53:48.063Z,6.77
2023-05-15T00:56:17.043Z,6.47
2023-05-15T00:58:47.700Z,6.90
2023-05-15T01:01:17.625Z,8.25
2023-05-15T01:03:46.872Z,6.80
2023-05-15T01:06:14.366Z,6.03
2023-05-15T01:08:47.888Z,5.15
2023-05-15T01:11:17.830Z,5.18
2023-05-15T01:13:46.742Z,4.80
2023-05-15T01:16:14.100Z,4.87
2023-05-15T01:18:41.658Z,4.57
2023-05-15T01:21:51.505Z,5.40
2023-05-15T01:24:44.990Z,6.13
2023-05-15T01:27:59.339Z,5.90
2023-05-15T01:30:36.442Z,6.50
2023-05-15T01:33:29.390Z,5.50
2023-05-15T01:36:08.101Z,7.03
2023-05-15T01:38:53.133Z,7.10
2023-05-15T01:42:01.911Z,6.93
2023-05-15T01:44:32.719Z,7.50
2023-05-15T01:47:10.815Z,7.75
2023-05-15T01:49:39.752Z,7.30
2023-05-15T01:52:20.782Z,7.70
2023-05-15T01:54:50.398Z,9.68
2023-05-15T01:57:19.208Z,8.75
2023-05-15T01:59:46.929Z,8.52
2023-05-15T02:02:15.612Z,8.00
2023-05-15T02:04:45.887Z,8.20
2023-05-15T02:07:15.009Z,7.68
2023-05-15T02:09:43.933Z,7.68
2023-05-15T02:12:11.951Z,7.68
2023-05-15T02:17:08.709Z,8.10
2023-05-15T02:19:36.317Z,8.35
2023-05-15T02:22:08.099Z,7.18
2023-05-15T02:24:35.726Z,8.65
2023-05-15T02:27:29.412Z,6.90
2023-05-15T02:30:15.940Z,8.02
2023-05-15T02:32:56.286Z,7.57
2023-05-15T02:35:58.954Z,6.65
2023-05-15T02:38:41.259Z,6.82
2023-05-15T02:41:10.154Z,7.53
2023-05-15T02:43:41.311Z,7.55
2023-05-15T02:46:12.671Z,7.10
2023-05-15T02:48:41.752Z,7.10
2023-05-15T02:51:10.055Z,6.95
2023-05-15T02:56:10.227Z,7.03
2023-05-15T02:58:39.355Z,6.32
2023-05-15T03:01:07.421Z,6.18
2023-05-15T03:03:34.902Z,5.97
2023-05-15T03:06:04.323Z,7.00
2023-05-15T03:08:31.786Z,7.07
2023-05-15T03:10:59.315Z,7.10
2023-05-15T03:13:26.706Z,7.75
2023-05-15T03:15:54.248Z,8.13
2023-05-15T03:18:21.733Z,7.25
2023-05-15T03:20:52.824Z,8.25
2023-05-15T03:23:20.448Z,7.13
2023-05-15T03:25:47.934Z,8.18
2023-05-15T03:28:15.742Z,7.20
2023-05-15T03:30:48.725Z,7.53
2023-05-15T03:33:16.262Z,7.28
2023-05-15T03:35:44.917Z,7.82
2023-05-15T03:38:12.417Z,7.18
2023-05-15T03:43:08.260Z,7.30
2023-05-15T03:45:37.442Z,7.73
2023-05-15T03:48:05.781Z,7.88
2023-05-15T03:50:33.708Z,6.20
2023-05-15T03:53:01.384Z,6.60
2023-05-15T03:55:29.084Z,6.68
2023-05-15T03:57:56.964Z,6.70
2023-05-15T04:00:24.837Z,5.45
2023-05-15T04:05:21.959Z,6.57
2023-05-15T04:07:49.595Z,5.72
2023-05-15T04:10:17.029Z,6.28
2023-05-15T04:12:44.543Z,4.82
2023-05-15T04:15:23.944Z,5.40
2023-05-15T04:17:53.866Z,4.38
2023-05-15T04:20:25.385Z,4.72
2023-05-15T04:22:53.903Z,4.47
2023-05-15T04:25:21.786Z,3.45
2023-05-15T04:27:49.538Z,2.83
2023-05-15T04:32:44.905Z,2.95
2023-05-15T04:35:13.697Z,2.90
2023-05-15T04:37:42.955Z,2.78
2023-05-15T04:40:11.184Z,2.50
2023-05-15T04:42:39.582Z,2.22
2023-05-15T04:45:09.435Z,2.60
2023-05-15T04:47:37.829Z,1.73
2023-05-15T04:50:06.832Z,2.00
2023-05-15T04:52:34.402Z,1.98
2023-05-15T04:55:02.130Z,2.03
2023-05-15T04:57:32.138Z,2.22
2023-05-15T04:59:59.588Z,1.85
2023-05-15T05:02:27.404Z,1.75
2023-05-15T05:07:21.969Z,1.40
2023-05-15T05:09:49.427Z,1.40
2023-05-15T05:12:16.815Z,1.20
2023-05-15T05:14:47.257Z,1.30
2023-05-15T05:17:14.741Z,1.45
2023-05-15T05:19:42.115Z,1.30
2023-05-15T05:22:09.932Z,1.10
2023-05-15T05:27:05.874Z,1.15
2023-05-15T05:29:33.789Z,1.20
2023-05-15T05:34:29.237Z,1.30
2023-05-15T05:39:23.939Z,0.90
2023-05-15T05:41:51.418Z,0.98
2023-05-15T05:44:18.940Z,0.98
2023-05-15T05:46:46.504Z,1.13
2023-05-15T05:49:13.892Z,1.13
2023-05-15T05:51:41.276Z,1.45
2023-05-15T05:54:08.763Z,0.90
2023-05-15T05:56:36.446Z,1.33
2023-05-15T05:59:04.002Z,1.00
2023-05-15T06:01:32.887Z,1.13
2023-05-15T06:04:00.457Z,0.93
2023-05-15T06:06:27.927Z,0.90
2023-05-15T06:08:56.469Z,1.10
2023-05-15T06:11:25.516Z,1.27
2023-05-15T06:13:53.272Z,1.20
2023-05-15T06:16:21.906Z,1.00
2023-05-15T06:18:49.489Z,1.13
2023-05-15T06:21:17.047Z,1.27
2023-05-15T06:23:44.504Z,1.08
2023-05-15T06:26:12.023Z,1.05
2023-05-15T06:28:39.499Z,1.13
2023-05-15T06:31:06.968Z,0.95
2023-05-15T06:33:34.378Z,0.88
2023-05-15T06:36:02.391Z,0.77
2023-05-15T06:38:29.826Z,4.43
2023-05-15T06:40:58.510Z,1.80
2023-05-15T06:43:25.949Z,2.92
2023-05-15T06:45:53.543Z,3.03
2023-05-15T06:48:20.944Z,1.25
2023-05-15T06:50:49.221Z,1.00
2023-05-15T06:55:45.161Z,1.08
2023-05-15T06:58:12.778Z,1.10
2023-05-15T07:00:40.419Z,0.80
2023-05-15T07:03:07.846Z,0.70
2023-05-15T07:05:35.376Z,0.73
2023-05-15T07:08:02.731Z,0.60
2023-05-15T07:10:30.160Z,0.65
2023-05-15T07:12:57.629Z,1.00
2023-05-15T07:15:25.060Z,1.17
2023-05-15T07:17:55.699Z,1.20
2023-05-15T07:20:24.218Z,1.27
2023-05-15T07:22:56.834Z,0.60
2023-05-15T07:25:26.006Z,1.40
2023-05-15T07:27:53.811Z,0.85
2023-05-15T07:30:21.566Z,2.08
2023-05-15T07:32:49.468Z,1.10
2023-05-15T07:35:17.092Z,0.90
2023-05-15T07:37:44.624Z,1.02
2023-05-15T07:40:12.564Z,0.90
2023-05-15T07:42:40.000Z,0.80
2023-05-15T07:45:08.220Z,0.75
2023-05-15T07:47:36.335Z,0.70
2023-05-15T07:52:33.417Z,1.02
2023-05-15T07:55:01.448Z,1.02
2023-05-15T07:57:32.084Z,1.13
2023-05-15T07:59:59.645Z,1.10
2023-05-15T08:02:27.130Z,0.90
2023-05-15T08:04:54.871Z,1.20
2023-05-15T08:07:22.407Z,1.30
2023-05-15T08:09:49.794Z,1.50
2023-05-15T08:12:21.639Z,1.20
2023-05-15T08:14:54.928Z,1.15
2023-05-15T08:17:23.721Z,0.88
2023-05-15T08:19:51.355Z,0.80
2023-05-15T08:22:18.780Z,1.10
2023-05-15T08:24:46.178Z,0.80
2023-05-15T08:27:13.957Z,0.90
2023-05-15T08:29:41.372Z,0.82
2023-05-15T08:32:10.404Z,1.40
2023-05-15T08:34:38.837Z,0.90
2023-05-15T08:37:07.228Z,1.20
2023-05-15T08:42:34.398Z,1.30
2023-05-15T08:45:03.008Z,1.02
2023-05-15T08:47:35.661Z,1.17
2023-05-15T08:50:07.832Z,1.02
2023-05-15T08:52:36.586Z,1.15
2023-05-15T08:55:04.657Z,1.10
2023-05-15T08:57:35.185Z,0.98
2023-05-15T09:00:09.445Z,0.95
2023-05-15T09:02:39.753Z,0.90
2023-05-15T09:05:09.763Z,0.80
2023-05-15T09:07:43.575Z,1.20
2023-05-15T09:10:11.606Z,0.80
2023-05-15T09:15:16.070Z,0.70
2023-05-15T09:17:44.963Z,1.00
2023-05-15T09:20:36.632Z,0.77
2023-05-15T09:23:06.475Z,1.00
2023-05-15T09:25:40.843Z,0.85
2023-05-15T09:28:11.541Z,0.80
2023-05-15T09:30:41.928Z,0.77
2023-05-15T09:35:38.817Z,0.88
2023-05-15T09:38:14.339Z,0.85
2023-05-15T09:40:42.007Z,0.80
2023-05-15T09:43:12.687Z,0.70
2023-05-15T09:45:40.334Z,0.90
2023-05-15T09:48:08.838Z,0.93
2023-05-15T09:50:39.120Z,1.02
2023-05-15T09:53:06.781Z,1.10
2023-05-15T09:58:13.033Z,1.20
2023-05-15T10:00:48.784Z,0.90
2023-05-15T10:03:20.490Z,0.63
2023-05-15T10:05:48.170Z,1.00
2023-05-15T10:08:16.649Z,0.85
2023-05-15T10:10:45.514Z,0.80
2023-05-15T10:13:13.027Z,0.60
2023-05-15T10:15:41.115Z,0.80
2023-05-15T10:18:09.226Z,0.60
2023-05-15T10:20:37.839Z,1.17
2023-05-15T10:23:10.687Z,1.13
2023-05-15T10:25:50.792Z,0.60
2023-05-15T10:28:20.055Z,0.47
2023-05-15T10:30:48.315Z,0.50
2023-05-15T10:33:16.126Z,0.70
2023-05-15T10:35:44.470Z,0.60
2023-05-15T10:38:13.276Z,0.57
2023-05-15T10:40:42.012Z,0.80
2023-05-15T10:43:12.240Z,0.80
2023-05-15T10:45:40.372Z,0.80
2023-05-15T10:48:12.270Z,0.90
2023-05-15T10:50:40.022Z,0.88
2023-05-15T10:53:09.746Z,0.80
2023-05-15T10:55:38.351Z,0.70
2023-05-15T10:58:10.361Z,1.05
2023-05-15T11:00:45.696Z,0.82
2023-05-15T11:03:47.510Z,0.82
2023-05-15T11:06:16.415Z,0.70
2023-05-15T11:08:45.287Z,0.70
2023-05-15T11:11:54.846Z,1.38
2023-05-15T11:14:24.754Z,1.13
2023-05-15T11:16:55.477Z,0.60
2023-05-15T11:19:25.539Z,0.60
2023-05-15T11:22:09.022Z,0.50
2023-05-15T11:25:02.336Z,0.63
2023-05-15T11:27:42.860Z,0.63
2023-05-15T11:30:13.157Z,0.80
2023-05-15T11:33:11.539Z,0.50
2023-05-15T11:35:43.677Z,0.60
2023-05-15T11:38:11.033Z,0.60
2023-05-15T11:40:44.332Z,0.70
2023-05-15T11:43:35.104Z,0.80
2023-05-15T11:46:08.891Z,0.65
2023-05-15T11:48:42.541Z,0.60
2023-05-15T11:51:27.901Z,0.60
2023-05-15T11:53:56.841Z,0.70
2023-05-15T11:56:28.392Z,0.60
2023-05-15T11:58:59.186Z,0.60
2023-05-15T12:01:28.361Z,0.73
2023-05-15T12:03:56.330Z,0.63
2023-05-15T12:08:53.062Z,0.60
2023-05-15T12:11:25.197Z,0.70
2023-05-15T12:13:55.447Z,0.80
2023-05-15T12:16:27.549Z,0.60
2023-05-15T12:18:58.049Z,0.70
2023-05-15T12:21:28.650Z,0.77
2023-05-15T12:26:29.270Z,0.80
2023-05-15T12:28:57.058Z,0.70
2023-05-15T12:31:24.775Z,0.90
2023-05-15T12:33:52.382Z,0.80
2023-05-15T12:36:22.991Z,0.90
2023-05-15T12:38:50.862Z,0.80
2023-05-15T12:43:48.475Z,0.75
2023-05-15T12:46:15.952Z,1.40
2023-05-15T12:48:44.000Z,0.80
2023-05-15T12:53:40.074Z,1.02
2023-05-15T12:56:10.054Z,0.85
2023-05-15T12:58:38.395Z,0.77
2023-05-15T13:01:06.458Z,0.77
2023-05-15T13:03:34.655Z,0.80
2023-05-15T13:08:30.820Z,0.70
2023-05-15T13:11:00.722Z,0.80
2023-05-15T13:13:45.380Z,0.60
2023-05-15T13:16:26.427Z,0.80
2023-05-15T13:18:54.067Z,0.68
2023-05-15T13:21:21.655Z,0.75
2023-05-15T13:23:49.283Z,0.80
2023-05-15T13:26:16.825Z,0.60
2023-05-15T13:28:44.373Z,0.80
2023-05-15T13:31:12.243Z,1.20
2023-05-15T13:36:07.591Z,0.60
2023-05-15T13:38:35.151Z,0.55
2023-05-15T13:41:02.568Z,0.70
2023-05-15T13:43:30.045Z,0.50
2023-05-15T13:45:57.453Z,0.93
2023-05-15T13:48:25.093Z,0.70
2023-05-15T13:50:52.689Z,0.70
2023-05-15T13:53:20.054Z,0.82
2023-05-15T13:55:47.623Z,0.90
2023-05-15T13:58:15.699Z,0.80
2023-05-15T14:00:44.523Z,0.68
2023-05-15T14:03:14.942Z,0.60
2023-05-15T14:05:42.756Z,0.70
2023-05-15T14:08:10.156Z,0.80
2023-05-15T14:10:37.794Z,1.08
2023-05-15T14:13:05.330Z,1.02
2023-05-15T14:15:32.810Z,0.90
2023-05-15T14:18:00.224Z,0.98
2023-05-15T14:20:27.972Z,0.73
2023-05-15T14:22:56.372Z,0.80
2023-05-15T14:25:24.566Z,0.88
2023-05-15T14:27:52.009Z,0.60
2023-05-15T14:30:19.584Z,1.13
2023-05-15T14:32:47.043Z,0.90
2023-05-15T14:35:14.478Z,0.80
2023-05-15T14:37:43.264Z,1.02
2023-05-15T14:40:11.472Z,0.80
2023-05-15T14:42:38.945Z,0.70
2023-05-15T14:45:06.983Z,0.70
2023-05-15T14:47:34.534Z,0.85
2023-05-15T14:50:02.021Z,0.60
2023-05-15T14:52:31.477Z,0.90
2023-05-15T14:55:08.432Z,0.77
2023-05-15T14:57:36.908Z,0.80
2023-05-15T15:00:09.652Z,0.70
2023-05-15T15:02:37.385Z,0.73
2023-05-15T15:05:05.329Z,1.00
2023-05-15T15:08:07.071Z,1.02
2023-05-15T15:10:37.325Z,1.00
2023-05-15T15:13:05.941Z,0.80
2023-05-15T15:15:34.975Z,0.90
2023-05-15T15:18:02.531Z,0.90
2023-05-15T15:20:30.149Z,1.20
2023-05-15T15:22:57.682Z,0.80
2023-05-15T15:25:25.806Z,0.80
2023-05-15T15:27:53.255Z,0.65
2023-05-15T15:30:20.808Z,0.80
2023-05-15T15:32:48.300Z,1.10
2023-05-15T15:35:15.892Z,0.70
2023-05-15T15:37:43.314Z,0.70
2023-05-15T15:40:12.159Z,0.80
2023-05-15T15:42:39.702Z,1.00
2023-05-15T15:45:07.827Z,1.02
2023-05-15T15:47:35.426Z,0.90
2023-05-15T15:50:02.967Z,0.73
2023-05-15T15:52:33.366Z,0.80
2023-05-15T15:55:00.906Z,0.57
2023-05-15T15:57:29.926Z,0.52
2023-05-15T15:59:57.573Z,0.90
2023-05-15T16:02:25.029Z,0.90
2023-05-15T16:04:52.442Z,0.73
2023-05-15T16:07:20.262Z,0.80
2023-05-15T16:09:51.394Z,0.70
2023-05-15T16:12:28.052Z,0.70
2023-05-15T16:17:22.908Z,0.70
2023-05-15T16:19:50.393Z,0.57
2023-05-15T16:22:17.935Z,0.60
2023-05-15T16:24:45.445Z,2.97
2023-05-15T16:27:12.924Z,2.72
2023-05-15T16:29:40.356Z,2.90
2023-05-15T16:32:08.671Z,2.80
2023-05-15T16:34:36.252Z,1.88
2023-05-15T16:37:03.897Z,1.55
2023-05-15T16:39:36.926Z,1.05
2023-05-15T16:42:09.525Z,1.38
2023-05-15T16:44:37.183Z,1.02
2023-05-15T16:47:05.258Z,2.33
2023-05-15T16:51:59.853Z,2.90
2023-05-15T16:54:27.290Z,3.05
2023-05-15T16:56:54.672Z,3.00
2023-05-15T16:59:22.098Z,2.20
2023-05-15T17:01:49.565Z,2.28
2023-05-15T17:04:17.110Z,2.20
2023-05-15T17:06:44.628Z,2.65
2023-05-15T17:09:12.071Z,2.58
2023-05-15T17:11:39.664Z,2.40
2023-05-15T17:14:07.390Z,1.98
2023-05-15T17:16:34.970Z,2.28
2023-05-15T17:19:02.423Z,2.70
2023-05-15T17:21:29.827Z,2.20
2023-05-15T17:23:57.208Z,2.03
2023-05-15T17:26:24.820Z,2.15
2023-05-15T17:28:52.352Z,2.15
2023-05-15T17:31:21.204Z,3.25
2023-05-15T17:33:48.745Z,4.32
2023-05-15T17:36:16.136Z,3.88
2023-05-15T17:38:43.521Z,3.03
2023-05-15T17:41:10.934Z,3.30
2023-05-15T17:43:38.328Z,3.20
2023-05-15T17:46:05.997Z,3.75
2023-05-15T17:48:33.884Z,4.07
2023-05-15T17:53:29.206Z,3.85
2023-05-15T17:55:56.631Z,4.68
2023-05-15T17:58:24.171Z,5.63
2023-05-15T18:00:52.249Z,4.85
2023-05-15T18:03:22.267Z,4.88
2023-05-15T18:05:49.769Z,5.57
2023-05-15T18:08:17.167Z,5.20
2023-05-15T18:10:44.621Z,4.93
2023-05-15T18:13:12.172Z,5.60
2023-05-15T18:15:39.737Z,5.20
2023-05-15T18:18:07.310Z,5.13
2023-05-15T18:20:35.003Z,5.00
2023-05-15T18:23:02.453Z,5.20
2023-05-15T18:25:29.996Z,4.47
2023-05-15T18:27:57.527Z,6.10
2023-05-15T18:30:25.054Z,6.60
2023-05-15T18:32:52.519Z,6.15
2023-05-15T18:35:20.178Z,5.63
2023-05-15T18:37:47.643Z,6.97
2023-05-15T18:40:15.205Z,7.18
2023-05-15T18:42:42.659Z,6.82
2023-05-15T18:45:10.773Z,7.68
2023-05-15T18:50:06.738Z,7.00
2023-05-15T18:52:34.186Z,6.97
2023-05-15T18:55:01.672Z,7.95
2023-05-15T18:57:29.427Z,7.40
2023-05-15T18:59:56.968Z,8.80
2023-05-15T19:02:26.108Z,7.28
2023-05-15T19:04:53.854Z,7.32
2023-05-15T19:07:21.348Z,7.43
2023-05-15T19:09:48.740Z,6.85
2023-05-15T19:12:16.202Z,8.23
2023-05-15T19:14:43.688Z,6.90
2023-05-15T19:17:11.269Z,6.53
2023-05-15T19:19:38.635Z,5.53
2023-05-15T19:22:06.087Z,6.50
2023-05-15T19:24:33.746Z,6.35
2023-05-15T19:27:01.309Z,5.47
2023-05-15T19:29:28.851Z,4.95
2023-05-15T19:31:56.483Z,5.22
2023-05-15T19:34:24.003Z,5.32
2023-05-15T19:36:51.463Z,5.57
2023-05-15T19:39:18.937Z,5.00
2023-05-15T19:41:46.527Z,5.20
2023-05-15T19:44:14.131Z,4.95
2023-05-15T19:46:41.634Z,4.80
2023-05-15T19:49:11.132Z,4.93
2023-05-15T19:51:41.169Z,4.68
2023-05-15T19:54:09.474Z,6.15
2023-05-15T19:59:04.086Z,4.65
2023-05-15T20:01:31.655Z,4.65
2023-05-15T20:03:59.277Z,4.88
2023-05-15T20:06:26.816Z,5.18
2023-05-15T20:08:54.238Z,4.88
2023-05-15T20:11:23.036Z,4.45
2023-05-15T20:13:50.632Z,4.65
2023-05-15T20:16:18.772Z,5.07
2023-05-15T20:21:16.096Z,4.55
2023-05-15T20:26:10.785Z,4.72
2023-05-15T20:28:38.233Z,4.53
2023-05-15T20:31:05.732Z,4.85
2023-05-15T20:33:33.235Z,4.43
2023-05-15T20:36:00.698Z,4.22
2023-05-15T20:38:28.483Z,5.35
2023-05-15T20:40:56.919Z,5.47
2023-05-15T20:43:24.347Z,5.20
2023-05-15T20:45:52.068Z,5.43
2023-05-15T20:48:19.672Z,5.63
2023-05-15T20:50:47.996Z,5.03
2023-05-15T20:53:15.468Z,4.95
2023-05-15T20:55:42.991Z,4.68
2023-05-15T20:58:10.601Z,5.50
2023-05-15T21:00:38.071Z,5.07
2023-05-15T21:03:06.273Z,5.78
2023-05-15T21:05:33.836Z,5.93
2023-05-15T21:08:01.453Z,5.97
2023-05-15T21:10:29.355Z,6.55
2023-05-15T21:12:59.413Z,5.47
2023-05-15T21:15:27.176Z,5.63
2023-05-15T21:17:54.670Z,4.70
2023-05-15T21:20:22.232Z,5.70
2023-05-15T21:22:50.048Z,5.30
2023-05-15T21:25:19.267Z,4.55
2023-05-15T21:27:47.034Z,5.30
2023-05-15T21:30:14.894Z,4.57
2023-05-15T21:32:42.449Z,5.70
2023-05-15T21:35:10.375Z,5.10
2023-05-15T21:37:37.853Z,6.55
2023-05-15T21:40:06.765Z,6.03
2023-05-15T21:42:34.221Z,4.35
2023-05-15T21:45:02.494Z,5.13
2023-05-15T21:47:32.672Z,4.85
2023-05-15T21:50:00.159Z,4.85
2023-05-15T21:52:29.955Z,4.80
2023-05-15T21:54:57.407Z,4.20
2023-05-15T21:57:24.926Z,5.70
2023-05-15T21:59:52.371Z,5.15
2023-05-15T22:02:19.836Z,5.80
2023-05-15T22:04:47.403Z,6.13
2023-05-15T22:07:15.089Z,6.78
2023-05-15T22:09:44.898Z,5.13
2023-05-15T22:12:24.658Z,5.95
2023-05-15T22:14:58.956Z,5.70
2023-05-15T22:17:30.735Z,4.78
2023-05-15T22:20:07.530Z,4.32
2023-05-15T22:22:36.067Z,4.30
2023-05-15T22:25:04.399Z,4.70
2023-05-15T22:27:35.671Z,4.20
2023-05-15T22:30:04.394Z,3.83
2023-05-15T22:32:33.766Z,5.13
2023-05-15T22:35:02.342Z,4.40
2023-05-15T22:37:32.168Z,4.88
2023-05-15T22:40:00.059Z,4.70
2023-05-15T22:42:30.587Z,4.20
2023-05-15T22:44:58.115Z,4.60
2023-05-15T22:47:28.499Z,3.90
2023-05-15T22:49:56.437Z,4.22
2023-05-15T22:52:24.105Z,3.83
2023-05-15T22:54:51.593Z,4.43
2023-05-15T22:57:19.074Z,3.93
2023-05-15T22:59:46.908Z,4.25
2023-05-15T23:02:14.310Z,5.30
2023-05-15T23:04:41.758Z,5.50
2023-05-15T23:07:09.409Z,6.88
2023-05-15T23:09:36.899Z,6.35
2023-05-15T23:12:04.691Z,5.47
2023-05-15T23:14:33.124Z,6.40
2023-05-15T23:17:00.650Z,5.40
2023-05-15T23:19:28.072Z,5.95
2023-05-15T23:21:55.901Z,5.85
2023-05-15T23:24:23.321Z,5.90
2023-05-15T23:26:51.015Z,5.90
2023-05-15T23:29:18.532Z,6.20
2023-05-15T23:31:46.070Z,4.93
2023-05-15T23:34:13.708Z,6.80
2023-05-15T23:36:41.443Z,5.90
2023-05-15T23:39:09.459Z,6.38
2023-05-15T23:41:36.866Z,6.45
2023-05-15T23:44:04.632Z,6.30
2023-05-15T23:46:32.236Z,5.88
2023-05-15T23:48:59.734Z,7.07
2023-05-15T23:51:27.156Z,7.57
2023-05-15T23:53:54.538Z,7.60
2023-05-15T23:56:23.318Z,8.23
2023-05-15T23:58:50.718Z,6.35
